Time;durP1;ratioP1;P1;durP2;ratioP2;P2;SDS_P1;SDS_P2;PMS_P1;PMS_P2;Temp;Humidity;BMP_temperature;BMP_pressure;BME280_temperature;BME280_humidity;BME280_pressure;Samples;Min_cycle;Max_cycle;Signal;HPM_P1;HPM_P2
2022/11/24 00:00:28;;;;;;;;;8.00;5.25;;;;;11.93;59.43;100115.75;5047422;28;59917;-36
2022/11/24 00:02:53;;;;;;;;;8.00;5.50;;;;;11.90;59.85;100113.25;5017964;27;50729;-36
2022/11/24 00:05:18;;;;;;;;;5.50;4.00;;;;;11.86;59.84;100106.38;5037376;28;59230;-36
2022/11/24 00:07:44;;;;;;;;;12.25;5.00;;;;;11.85;59.97;100109.94;5036219;27;65495;-37
2022/11/24 00:10:09;;;;;;;;;12.75;6.50;;;;;11.82;59.94;100112.69;5021099;28;68029;-37
2022/11/24 00:12:34;;;;;;;;;9.00;4.25;;;;;11.81;59.89;100113.63;5022753;28;45463;-36
2022/11/24 00:15:00;;;;;;;;;9.75;5.25;;;;;11.80;60.28;100111.91;5024097;28;68269;-36
2022/11/24 00:17:25;;;;;;;;;9.00;4.00;;;;;11.81;60.10;100118.00;5037360;28;72074;-37
2022/11/24 00:19:50;;;;;;;;;9.25;4.75;;;;;11.82;60.03;100130.19;5021441;28;46365;-37
2022/11/24 00:22:16;;;;;;;;;5.00;3.00;;;;;11.80;59.99;100125.00;5020927;28;62743;-37
2022/11/24 00:24:41;;;;;;;;;6.75;2.25;;;;;11.81;60.14;100111.00;5027161;28;45394;-38
2022/11/24 00:27:07;;;;;;;;;4.00;3.75;;;;;11.85;60.22;100117.81;5026614;28;56369;-36
2022/11/24 00:29:32;;;;;;;;;9.00;3.00;;;;;11.86;59.79;100105.53;5031355;28;45567;-36
2022/11/24 00:31:58;;;;;;;;;7.75;4.25;;;;;11.87;60.43;100112.50;5046315;28;59151;-36
2022/11/24 00:34:23;;;;;;;;;9.50;3.75;;;;;11.87;59.93;100102.84;5044171;28;45348;-36
2022/11/24 00:36:48;;;;;;;;;6.50;3.50;;;;;11.89;59.84;100085.28;5031681;28;45448;-36
2022/11/24 00:39:14;;;;;;;;;7.00;3.00;;;;;11.90;59.87;100088.78;5020606;28;70371;-36
2022/11/24 00:41:40;;;;;;;;;6.00;4.25;;;;;11.90;60.23;100084.41;5043458;28;45381;-36
2022/11/24 00:44:06;;;;;;;;;7.75;4.00;;;;;11.92;60.12;100074.72;5027145;28;45414;-36
2022/11/24 00:46:31;;;;;;;;;6.50;3.00;;;;;11.93;60.28;100070.31;5042558;28;45327;-36
2022/11/24 00:48:59;;;;;;;;;9.50;6.00;;;;;11.93;59.87;100086.91;5034137;28;45340;-36
2022/11/24 00:51:26;;;;;;;;;12.25;5.25;;;;;11.94;60.01;100080.72;5039925;27;45943;-36
2022/11/24 00:53:52;;;;;;;;;8.50;4.75;;;;;11.95;60.20;100069.34;5037156;28;45343;-36
2022/11/24 00:56:17;;;;;;;;;7.25;3.00;;;;;11.96;59.98;100063.16;5025356;28;45606;-37
2022/11/24 00:58:43;;;;;;;;;6.75;2.00;;;;;11.98;59.90;100052.59;5036082;28;47530;-36
2022/11/24 01:01:12;;;;;;;;;6.00;2.50;;;;;11.99;59.73;100072.69;5028360;28;72729;-36
2022/11/24 01:03:38;;;;;;;;;5.75;2.75;;;;;11.97;59.61;100079.75;5052863;27;45426;-36
2022/11/24 01:06:09;;;;;;;;;2.75;2.25;;;;;11.96;59.51;100081.50;5034273;28;45523;-36
2022/11/24 01:08:38;;;;;;;;;9.75;3.00;;;;;11.96;59.34;100105.13;5037491;28;47253;-36
2022/11/24 01:11:24;;;;;;;;;5.25;2.75;;;;;11.96;59.28;100106.88;5024884;28;45867;-36
2022/11/24 01:13:53;;;;;;;;;6.00;2.00;;;;;11.96;59.14;100105.13;5028874;28;45350;-36
2022/11/24 01:16:21;;;;;;;;;2.00;1.25;;;;;11.98;58.93;100110.28;5016980;27;45517;-36
2022/11/24 01:18:47;;;;;;;;;2.00;0.25;;;;;11.99;58.81;100119.88;5027077;28;46144;-36
2022/11/24 01:21:13;;;;;;;;;3.75;1.00;;;;;12.00;57.92;100129.44;5024758;28;45283;-35
2022/11/24 01:23:39;;;;;;;;;5.00;1.00;;;;;11.98;58.36;100127.81;5050311;28;45280;-35
2022/11/24 01:26:06;;;;;;;;;2.00;2.00;;;;;11.99;58.51;100129.50;5031953;28;45473;-35
2022/11/24 01:28:31;;;;;;;;;2.50;1.00;;;;;11.99;58.05;100139.97;5029564;28;46448;-35
2022/11/24 01:30:58;;;;;;;;;4.50;2.00;;;;;11.99;57.93;100138.25;5047840;28;45277;-36
2022/11/24 01:33:23;;;;;;;;;9.00;2.50;;;;;11.98;58.02;100147.00;5036232;28;45436;-36
2022/11/24 01:35:49;;;;;;;;;3.00;1.00;;;;;11.98;58.02;100136.53;5025021;28;45330;-36
2022/11/24 01:38:14;;;;;;;;;3.50;0.25;;;;;11.95;57.67;100140.13;5032257;28;60395;-35
2022/11/24 01:40:39;;;;;;;;;1.25;0.50;;;;;11.92;57.64;100135.00;5026384;28;57018;-35
2022/11/24 01:43:15;;;;;;;;;1.25;0.00;;;;;11.90;57.65;100147.34;5052567;28;61876;-36
2022/11/24 01:45:40;;;;;;;;;1.00;1.00;;;;;11.88;57.27;100154.38;5029426;28;45960;-35
2022/11/24 01:48:12;;;;;;;;;3.00;0.00;;;;;11.87;57.76;100162.31;5030615;28;45870;-35
2022/11/24 01:50:40;;;;;;;;;0.25;0.00;;;;;11.85;57.57;100161.53;5035408;28;45632;-35
2022/11/24 01:53:05;;;;;;;;;2.00;1.00;;;;;11.85;57.36;100166.78;5031665;27;45496;-36
2022/11/24 01:55:35;;;;;;;;;0.25;0.00;;;;;11.83;57.43;100169.47;5025917;28;74148;-35
2022/11/24 01:58:12;;;;;;;;;0.00;0.00;;;;;11.81;57.40;100167.78;5033756;28;47568;-35
2022/11/24 02:00:39;;;;;;;;;1.50;0.00;;;;;11.80;57.34;100185.31;5037243;28;45354;-35
2022/11/24 02:03:05;;;;;;;;;0.00;0.00;;;;;11.80;57.15;100181.84;5036180;27;45520;-35
2022/11/24 02:05:38;;;;;;;;;1.00;0.75;;;;;11.79;57.46;100194.06;5036061;28;45430;-35
2022/11/24 02:08:05;;;;;;;;;1.00;1.00;;;;;11.78;57.46;100208.13;5024429;28;45427;-36
2022/11/24 02:10:30;;;;;;;;;1.75;0.00;;;;;11.79;57.58;100204.56;5051619;28;70653;-35
2022/11/24 02:12:58;;;;;;;;;1.00;0.00;;;;;11.81;57.92;100215.88;5036168;28;66698;-35
2022/11/24 02:15:24;;;;;;;;;4.50;0.00;;;;;11.80;58.12;100213.31;5049623;27;45517;-35
2022/11/24 02:17:49;;;;;;;;;2.00;0.00;;;;;11.81;57.43;100230.72;5024891;28;45408;-35
2022/11/24 02:20:16;;;;;;;;;0.25;0.00;;;;;11.78;57.68;100240.41;5035956;28;63262;-35
2022/11/24 02:22:57;;;;;;;;;0.00;0.00;;;;;11.76;57.85;100244.03;5016052;28;45379;-35
2022/11/24 02:26:00;;;;;;;;;0.25;0.00;;;;;11.74;57.97;100244.09;5029415;27;45262;-35
2022/11/24 02:28:29;;;;;;;;;0.00;0.00;;;;;11.74;58.54;100248.47;5025992;28;45374;-35
2022/11/24 02:30:54;;;;;;;;;0.00;0.00;;;;;11.72;58.41;100245.03;5019825;28;45825;-35
2022/11/24 02:33:20;;;;;;;;;2.75;0.00;;;;;11.73;58.07;100257.25;5033483;28;58324;-35
2022/11/24 02:35:46;;;;;;;;;0.75;0.75;;;;;11.73;58.58;100255.47;5029063;28;45382;-37
2022/11/24 02:38:13;;;;;;;;;1.50;0.00;;;;;11.73;58.25;100265.09;5017428;28;45343;-37
2022/11/24 02:40:40;;;;;;;;;3.00;0.00;;;;;11.72;58.48;100271.25;5034752;28;45766;-37
2022/11/24 02:43:15;;;;;;;;;4.00;1.00;;;;;11.69;59.03;100269.63;5051271;27;45273;-37
2022/11/24 02:45:41;;;;;;;;;1.75;1.00;;;;;11.68;58.75;100272.28;5023586;28;45358;-38
2022/11/24 02:48:06;;;;;;;;;2.50;0.00;;;;;11.66;58.91;100272.34;5025318;28;46379;-37
2022/11/24 02:50:31;;;;;;;;;0.00;0.00;;;;;11.64;59.11;100278.59;5035917;28;49539;-37
2022/11/24 02:52:57;;;;;;;;;1.00;0.00;;;;;11.58;58.97;100290.16;5035526;28;45442;-37
2022/11/24 02:55:22;;;;;;;;;2.00;0.00;;;;;11.57;59.40;100286.66;5050062;28;45312;-37
2022/11/24 02:57:48;;;;;;;;;1.75;0.75;;;;;11.54;59.24;100294.66;5026794;28;45975;-37
2022/11/24 03:00:14;;;;;;;;;2.75;0.75;;;;;11.50;59.58;100295.69;5032877;28;67784;-37
2022/11/24 03:02:39;;;;;;;;;0.75;0.75;;;;;11.49;59.63;100296.59;5033908;27;45405;-37
2022/11/24 03:05:05;;;;;;;;;3.00;1.00;;;;;11.48;59.81;100305.38;5030214;28;45646;-37
2022/11/24 03:07:30;;;;;;;;;4.25;0.00;;;;;11.47;59.57;100314.13;5029029;28;45216;-37
2022/11/24 03:09:56;;;;;;;;;3.00;0.25;;;;;11.46;59.53;100325.53;5030208;28;65166;-37
2022/11/24 03:12:21;;;;;;;;;0.75;0.75;;;;;11.46;59.09;100328.16;5034537;28;57895;-37
2022/11/24 03:14:46;;;;;;;;;1.25;0.50;;;;;11.44;59.81;100335.22;5031374;28;57466;-37
2022/11/24 03:17:11;;;;;;;;;1.00;1.00;;;;;11.43;59.66;100336.13;5028135;28;67257;-35
2022/11/24 03:19:37;;;;;;;;;4.25;0.00;;;;;11.40;60.18;100344.09;5021028;28;45274;-35
2022/11/24 03:22:02;;;;;;;;;3.00;0.75;;;;;11.35;60.03;100339.03;5025482;28;45442;-35
2022/11/24 03:24:28;;;;;;;;;2.25;1.00;;;;;11.35;59.94;100346.91;5030855;28;45306;-35
2022/11/24 03:26:53;;;;;;;;;2.75;0.25;;;;;11.33;60.13;100342.59;5028378;28;45349;-35
2022/11/24 03:29:18;;;;;;;;;1.25;0.25;;;;;11.34;60.11;100339.09;5022648;28;63744;-35
2022/11/24 03:31:44;;;;;;;;;4.50;0.25;;;;;11.33;60.47;100339.97;5035732;28;48796;-35
2022/11/24 03:34:09;;;;;;;;;1.25;0.00;;;;;11.31;60.62;100354.91;5035145;27;45255;-36
2022/11/24 03:36:35;;;;;;;;;5.75;0.50;;;;;11.29;60.41;100346.25;5024837;28;46106;-36
2022/11/24 03:39:00;;;;;;;;;5.00;1.00;;;;;11.28;60.72;100344.53;5020026;28;68250;-36
2022/11/24 03:41:25;;;;;;;;;3.25;1.00;;;;;11.27;60.71;100338.44;5030105;28;45281;-36
2022/11/24 03:43:51;;;;;;;;;2.00;1.00;;;;;11.28;60.43;100347.16;5037171;28;60812;-36
2022/11/24 03:46:16;;;;;;;;;3.25;1.25;;;;;11.28;60.17;100347.16;5027689;28;46118;-36
2022/11/24 03:48:42;;;;;;;;;3.75;1.00;;;;;11.24;60.68;100338.56;5032325;28;45482;-36
2022/11/24 03:51:08;;;;;;;;;3.00;1.50;;;;;11.26;60.49;100338.50;5029528;28;65688;-36
2022/11/24 03:53:34;;;;;;;;;1.50;1.00;;;;;11.25;60.18;100345.50;5038292;28;45388;-36
2022/11/24 03:55:59;;;;;;;;;3.00;1.00;;;;;11.24;60.73;100350.81;5022381;28;45472;-36
2022/11/24 03:58:26;;;;;;;;;6.00;1.50;;;;;11.24;60.73;100358.66;5035901;28;45398;-36
2022/11/24 04:00:52;;;;;;;;;3.50;1.25;;;;;11.23;60.65;100365.66;5038315;28;45412;-36
2022/11/24 04:03:18;;;;;;;;;3.00;0.25;;;;;11.21;61.14;100359.63;5031744;27;45369;-36
2022/11/24 04:05:44;;;;;;;;;4.00;0.50;;;;;11.17;60.99;100364.13;5028948;28;46075;-36
2022/11/24 04:08:10;;;;;;;;;5.50;0.25;;;;;11.15;60.64;100362.47;5024680;28;45458;-36
2022/11/24 04:10:36;;;;;;;;;4.25;0.00;;;;;11.15;60.63;100381.63;5021653;28;46364;-36
2022/11/24 04:13:03;;;;;;;;;1.50;0.00;;;;;11.15;61.04;100383.41;5026347;28;45452;-36
2022/11/24 04:15:28;;;;;;;;;1.00;1.00;;;;;11.16;60.85;100379.91;5038483;28;46339;-36
2022/11/24 04:17:54;;;;;;;;;1.00;0.50;;;;;11.14;60.60;100379.94;5039908;28;65828;-36
2022/11/24 04:20:19;;;;;;;;;1.00;1.00;;;;;11.11;60.87;100385.28;5044889;27;45240;-36
2022/11/24 04:22:45;;;;;;;;;2.00;1.00;;;;;11.11;60.77;100387.06;5091546;27;68365;-36
2022/11/24 04:25:10;;;;;;;;;1.00;1.00;;;;;11.10;60.54;100391.44;5070362;27;45398;-36
2022/11/24 04:27:36;;;;;;;;;2.50;0.00;;;;;11.11;61.08;100387.06;5037645;28;45152;-36
2022/11/24 04:30:03;;;;;;;;;1.00;0.00;;;;;11.11;60.98;100400.16;5030904;28;45413;-36
2022/11/24 04:32:29;;;;;;;;;2.00;1.50;;;;;11.10;61.09;100401.03;5035621;28;45269;-36
2022/11/24 04:34:54;;;;;;;;;2.00;1.00;;;;;11.10;61.00;100407.16;5027492;28;64824;-36
2022/11/24 04:37:19;;;;;;;;;0.00;0.00;;;;;11.08;61.02;100403.72;5024998;28;73066;-36
2022/11/24 04:39:45;;;;;;;;;2.75;0.50;;;;;11.08;60.90;100415.97;5037939;28;58409;-35
2022/11/24 04:42:11;;;;;;;;;3.00;2.00;;;;;11.07;61.03;100415.13;5035294;28;45419;-36
2022/11/24 04:44:36;;;;;;;;;2.00;0.50;;;;;11.06;61.06;100410.78;5027926;28;46323;-36
2022/11/24 04:47:01;;;;;;;;;3.50;1.00;;;;;11.06;61.01;100420.41;5023120;28;49194;-36
2022/11/24 04:49:27;;;;;;;;;1.00;1.00;;;;;11.06;61.47;100417.78;5035470;28;45264;-36
2022/11/24 04:51:52;;;;;;;;;4.00;0.50;;;;;11.07;60.83;100422.13;5021822;28;45228;-37
2022/11/24 04:54:18;;;;;;;;;2.75;1.00;;;;;11.06;61.16;100425.63;5027846;28;70797;-37
2022/11/24 04:56:43;;;;;;;;;2.75;1.00;;;;;11.05;60.88;100434.38;5021392;28;45251;-37
2022/11/24 04:59:15;;;;;;;;;3.00;1.00;;;;;11.05;61.15;100437.00;5030391;28;62218;-37
2022/11/24 05:01:41;;;;;;;;;2.00;0.75;;;;;11.02;60.86;100432.75;5037042;28;45428;-37
2022/11/24 05:04:09;;;;;;;;;2.00;0.25;;;;;11.01;61.28;100442.38;5041573;27;45722;-36
2022/11/24 05:06:35;;;;;;;;;6.00;1.00;;;;;11.02;61.22;100432.75;5030432;28;45386;-37
2022/11/24 05:09:00;;;;;;;;;3.00;1.00;;;;;11.03;61.18;100444.94;5028781;28;64850;-37
2022/11/24 05:11:25;;;;;;;;;1.00;1.00;;;;;11.05;61.14;100447.47;5036665;28;64265;-37
2022/11/24 05:13:52;;;;;;;;;4.75;1.00;;;;;11.05;61.13;100442.25;5036776;28;72702;-37
2022/11/24 05:16:17;;;;;;;;;3.00;1.25;;;;;11.05;60.89;100440.50;5024813;28;45658;-37
2022/11/24 05:18:42;;;;;;;;;3.00;2.00;;;;;11.05;61.07;100442.25;5021063;28;45490;-37
2022/11/24 05:21:08;;;;;;;;;2.25;0.75;;;;;11.02;61.17;100444.06;5033369;27;45633;-37
2022/11/24 05:23:33;;;;;;;;;3.00;1.00;;;;;11.02;61.10;100454.53;5026205;28;59632;-37
2022/11/24 05:26:02;;;;;;;;;1.00;0.00;;;;;11.01;61.20;100452.84;5050662;28;45397;-37
2022/11/24 05:28:28;;;;;;;;;2.50;0.50;;;;;11.00;61.17;100458.97;5036860;28;45240;-37
2022/11/24 05:30:53;;;;;;;;;3.00;0.00;;;;;11.02;61.04;100451.06;5089894;27;45442;-37
2022/11/24 05:33:21;;;;;;;;;0.25;0.00;;;;;11.02;61.00;100457.16;5027766;28;45415;-37
2022/11/24 05:35:48;;;;;;;;;1.50;1.50;;;;;11.05;60.75;100452.72;5041588;28;45184;-37
2022/11/24 05:38:14;;;;;;;;;6.25;1.00;;;;;11.05;61.30;100455.34;5025897;28;45302;-37
2022/11/24 05:40:39;;;;;;;;;7.00;2.00;;;;;11.07;61.28;100458.78;5032525;28;45424;-37
2022/11/24 05:43:12;;;;;;;;;4.00;2.00;;;;;11.06;60.98;100455.28;5031221;28;45394;-37
2022/11/24 05:45:37;;;;;;;;;2.00;1.50;;;;;11.07;61.04;100462.25;5038474;28;45391;-37
2022/11/24 05:48:05;;;;;;;;;2.75;1.25;;;;;11.07;60.80;100464.03;5042616;28;45472;-37
2022/11/24 05:50:30;;;;;;;;;2.50;1.00;;;;;11.06;60.77;100465.75;5048111;28;45483;-37
2022/11/24 05:52:56;;;;;;;;;2.00;1.00;;;;;11.06;61.07;100468.38;5026809;28;45524;-36
2022/11/24 05:55:21;;;;;;;;;3.75;0.00;;;;;11.06;61.19;100478.00;5032577;28;45330;-36
2022/11/24 05:57:46;;;;;;;;;2.50;1.00;;;;;11.04;61.09;100479.81;5028018;28;45989;-36
2022/11/24 06:00:13;;;;;;;;;1.00;1.00;;;;;11.01;61.23;100475.53;5013864;28;45630;-36
2022/11/24 06:02:39;;;;;;;;;12.75;2.25;;;;;11.01;61.52;100486.00;5033117;27;46900;-37
2022/11/24 06:05:04;;;;;;;;;2.50;1.00;;;;;11.01;61.48;100484.25;5024034;28;45246;-37
2022/11/24 06:07:29;;;;;;;;;3.75;1.00;;;;;11.00;61.25;100493.00;5045985;28;46020;-37
2022/11/24 06:09:55;;;;;;;;;1.00;0.00;;;;;11.00;61.21;100492.16;5025575;28;65597;-36
2022/11/24 06:12:20;;;;;;;;;2.00;1.00;;;;;10.97;61.18;100498.34;5030577;28;45373;-36
2022/11/24 06:14:45;;;;;;;;;3.50;1.00;;;;;10.97;61.45;100497.50;5036531;28;45242;-36
2022/11/24 06:17:11;;;;;;;;;1.00;1.00;;;;;10.96;61.56;100495.75;5025850;28;59574;-37
2022/11/24 06:19:37;;;;;;;;;2.00;1.00;;;;;10.97;61.38;100498.34;5024533;27;61863;-36
2022/11/24 06:22:02;;;;;;;;;1.00;1.00;;;;;10.96;61.28;100503.63;5036870;28;45376;-36
2022/11/24 06:24:27;;;;;;;;;3.50;1.50;;;;;10.96;61.59;100501.00;5025821;28;45282;-36
2022/11/24 06:26:53;;;;;;;;;1.25;0.75;;;;;10.97;61.64;100518.44;5036231;28;63014;-36
2022/11/24 06:29:18;;;;;;;;;2.00;0.00;;;;;10.93;61.26;100496.75;5033572;28;48029;-35
2022/11/24 06:31:43;;;;;;;;;3.75;1.00;;;;;10.92;61.68;100508.09;5025635;28;72068;-36
2022/11/24 06:34:09;;;;;;;;;3.50;1.75;;;;;10.94;61.75;100516.78;5032179;28;71541;-36
2022/11/24 06:36:35;;;;;;;;;4.00;1.25;;;;;10.95;61.56;100518.47;5019293;28;45304;-37
2022/11/24 06:39:01;;;;;;;;;1.00;1.00;;;;;10.94;61.36;100527.25;5027175;28;45577;-36
2022/11/24 06:41:26;;;;;;;;;1.00;1.00;;;;;10.95;61.66;100521.09;5025426;28;45312;-36
2022/11/24 06:43:52;;;;;;;;;5.25;2.00;;;;;10.95;61.85;100528.97;5029045;28;71537;-36
2022/11/24 06:46:17;;;;;;;;;6.00;2.00;;;;;10.94;61.70;100529.88;5027582;28;62615;-36
2022/11/24 06:48:42;;;;;;;;;4.25;1.50;;;;;10.93;61.60;100538.63;5033492;28;45375;-36
2022/11/24 06:51:10;;;;;;;;;5.00;2.50;;;;;10.91;61.58;100532.59;5035514;28;45312;-36
2022/11/24 06:53:36;;;;;;;;;3.25;2.00;;;;;10.92;61.68;100542.13;5003083;28;45799;-37
2022/11/24 06:56:04;;;;;;;;;5.00;1.75;;;;;10.92;61.56;100546.53;5031136;28;45495;-36
2022/11/24 06:58:29;;;;;;;;;3.25;0.75;;;;;10.91;61.61;100560.53;5031579;28;45512;-37
2022/11/24 07:00:54;;;;;;;;;2.75;1.00;;;;;10.90;61.74;100553.56;5021530;28;46028;-36
2022/11/24 07:03:20;;;;;;;;;1.00;1.00;;;;;10.88;61.69;100556.25;5033361;27;47860;-36
2022/11/24 07:05:45;;;;;;;;;2.00;1.25;;;;;10.86;61.65;100557.22;5034452;28;45320;-36
2022/11/24 07:08:11;;;;;;;;;3.50;2.00;;;;;10.85;61.79;100576.41;5024919;28;45559;-36
2022/11/24 07:10:36;;;;;;;;;4.00;1.00;;;;;10.81;62.13;100578.28;5035807;28;61614;-36
2022/11/24 07:13:02;;;;;;;;;4.50;2.00;;;;;10.80;62.25;100587.91;5093085;27;45456;-37
2022/11/24 07:15:28;;;;;;;;;6.00;2.00;;;;;10.81;62.13;100599.22;5052120;28;45320;-37
2022/11/24 07:17:54;;;;;;;;;3.25;2.00;;;;;10.81;62.02;100600.06;5025473;28;45306;-37
2022/11/24 07:20:19;;;;;;;;;6.25;2.50;;;;;10.80;62.59;100597.50;5024928;28;46047;-36
2022/11/24 07:22:44;;;;;;;;;4.00;2.00;;;;;10.80;62.42;100603.59;5021150;28;55238;-36
2022/11/24 07:25:10;;;;;;;;;4.75;3.00;;;;;10.83;62.39;100603.50;5021654;28;45241;-37
2022/11/24 07:27:36;;;;;;;;;2.50;2.50;;;;;10.85;62.52;100602.59;5036474;28;45204;-37
2022/11/24 07:30:02;;;;;;;;;8.25;4.00;;;;;10.85;62.56;100608.69;5038216;28;45323;-37
2022/11/24 07:32:27;;;;;;;;;5.25;3.00;;;;;10.81;62.73;100607.06;5035728;28;45443;-37
2022/11/24 07:34:53;;;;;;;;;4.25;3.00;;;;;10.84;62.57;100604.38;5018720;28;58372;-37
2022/11/24 07:37:18;;;;;;;;;4.00;2.00;;;;;10.82;62.29;100593.94;5031551;28;64757;-37
2022/11/24 07:39:43;;;;;;;;;4.75;1.50;;;;;10.81;62.67;100600.06;5020799;28;54295;-37
2022/11/24 07:42:10;;;;;;;;;3.00;1.75;;;;;10.80;62.56;100608.84;5036256;28;45388;-36
2022/11/24 07:44:35;;;;;;;;;7.75;2.50;;;;;10.78;62.67;100596.69;5029168;28;45373;-37
2022/11/24 07:47:01;;;;;;;;;6.00;4.00;;;;;10.75;62.75;100602.88;5034588;28;45448;-37
2022/11/24 07:49:26;;;;;;;;;5.25;2.25;;;;;10.73;62.46;100607.31;5038140;28;70659;-37
2022/11/24 07:51:51;;;;;;;;;10.00;3.00;;;;;10.73;63.01;100617.78;5100101;27;45329;-38
2022/11/24 07:54:17;;;;;;;;;7.00;3.00;;;;;10.73;63.00;100624.75;5033779;28;45499;-36
2022/11/24 07:56:42;;;;;;;;;5.50;2.00;;;;;10.73;63.38;100622.13;5020072;28;48259;-36
2022/11/24 07:59:07;;;;;;;;;7.00;3.00;;;;;10.74;62.75;100623.88;5041186;28;45370;-37
2022/11/24 08:01:33;;;;;;;;;4.50;2.00;;;;;10.76;63.00;100635.13;5046758;28;58492;-36
2022/11/24 08:04:00;;;;;;;;;7.00;3.00;;;;;10.75;62.99;100636.91;5037945;27;54411;-37
2022/11/24 08:06:27;;;;;;;;;11.00;4.00;;;;;10.77;62.99;100640.34;5037584;28;45298;-36
2022/11/24 08:08:53;;;;;;;;;5.00;3.75;;;;;10.78;63.09;100647.31;5046238;28;47189;-36
2022/11/24 08:11:19;;;;;;;;;6.25;4.00;;;;;10.78;63.26;100649.91;5036701;28;45402;-37
2022/11/24 08:13:44;;;;;;;;;10.25;4.00;;;;;10.79;63.46;100650.75;5030255;27;45368;-37
2022/11/24 08:16:15;;;;;;;;;4.25;4.25;;;;;10.81;63.52;100651.56;5023786;28;45535;-40
2022/11/24 08:18:41;;;;;;;;;6.25;4.00;;;;;10.83;63.48;100657.63;5030717;28;46366;-37
2022/11/24 08:21:07;;;;;;;;;6.25;4.25;;;;;10.89;63.67;100664.44;5024903;28;45409;-37
2022/11/24 08:23:33;;;;;;;;;6.75;4.75;;;;;10.92;63.30;100665.19;5019750;28;45291;-36
2022/11/24 08:26:07;;;;;;;;;8.25;4.50;;;;;10.95;63.31;100672.13;5036013;28;45432;-44
2022/11/24 08:28:33;;;;;;;;;8.75;4.00;;;;;10.96;63.46;100672.06;5030254;28;46096;-36
2022/11/24 08:31:11;;;;;;;;;7.75;4.00;;;;;10.98;63.33;100672.88;5037133;28;45313;-37
2022/11/24 08:33:36;;;;;;;;;6.25;4.25;;;;;11.02;63.23;100677.13;5026104;28;45358;-37
2022/11/24 08:36:07;;;;;;;;;3.75;3.00;;;;;11.02;63.29;100684.13;5033335;28;45455;-37
2022/11/24 08:38:32;;;;;;;;;12.00;5.50;;;;;11.01;63.66;100687.63;5031490;28;46139;-37
2022/11/24 08:41:02;;;;;;;;;7.00;5.75;;;;;11.01;63.45;100682.38;5037093;28;45243;-37
2022/11/24 08:43:28;;;;;;;;;9.00;5.75;;;;;10.99;62.96;100690.28;5035602;28;45345;-37
2022/11/24 08:45:53;;;;;;;;;9.75;4.00;;;;;10.97;63.19;100694.72;5037746;28;45473;-38
2022/11/24 08:48:19;;;;;;;;;10.25;5.25;;;;;10.98;63.58;100701.69;5093520;27;68263;-35
2022/11/24 08:50:45;;;;;;;;;7.00;4.75;;;;;10.99;63.36;100694.69;5028439;28;45348;-38
2022/11/24 08:53:10;;;;;;;;;8.50;5.50;;;;;11.02;63.39;100691.97;5025024;28;68031;-35
2022/11/24 08:55:35;;;;;;;;;5.00;3.00;;;;;11.05;63.67;100696.25;5009769;27;63371;-35
2022/11/24 08:58:01;;;;;;;;;8.00;4.00;;;;;11.06;63.82;100692.75;5050108;28;68162;-36
2022/11/24 09:00:26;;;;;;;;;8.00;6.00;;;;;11.10;63.77;100689.13;5066571;27;58655;-36
2022/11/24 09:02:56;;;;;;;;;6.25;5.50;;;;;11.11;63.09;100685.63;5027525;27;45421;-36
2022/11/24 09:05:21;;;;;;;;;5.00;5.00;;;;;11.16;63.53;100692.41;5026437;28;45362;-36
2022/11/24 09:07:46;;;;;;;;;8.00;5.00;;;;;11.19;63.52;100697.56;5035920;28;72785;-36
2022/11/24 09:10:12;;;;;;;;;6.00;5.00;;;;;11.21;63.32;100695.75;5030982;28;67589;-38
2022/11/24 09:12:38;;;;;;;;;10.75;6.25;;;;;11.23;63.65;100700.97;5022731;28;45302;-41
2022/11/24 09:15:03;;;;;;;;;6.75;5.50;;;;;11.27;63.43;100706.97;5019433;28;68899;-37
2022/11/24 09:17:29;;;;;;;;;5.00;4.75;;;;;11.30;63.43;100706.88;5032545;28;46188;-37
2022/11/24 09:19:54;;;;;;;;;5.25;3.75;;;;;11.33;63.44;100698.91;5029581;28;55344;-37
2022/11/24 09:22:19;;;;;;;;;8.50;4.75;;;;;11.34;63.26;100696.22;5032764;28;65620;-37
2022/11/24 09:24:44;;;;;;;;;11.00;2.25;;;;;11.38;63.43;100703.13;5031706;28;45400;-36
2022/11/24 09:27:10;;;;;;;;;8.00;5.75;;;;;11.43;63.12;100702.97;5035639;28;65500;-36
2022/11/24 09:29:35;;;;;;;;;7.00;3.00;;;;;11.45;63.37;100709.00;5035445;28;68275;-36
2022/11/24 09:32:00;;;;;;;;;7.25;4.00;;;;;11.48;63.00;100710.69;5049582;28;66664;-36
2022/11/24 09:34:26;;;;;;;;;8.00;6.75;;;;;11.50;63.13;100703.63;5031368;28;45161;-37
2022/11/24 09:36:51;;;;;;;;;6.75;4.25;;;;;11.52;62.82;100705.28;5023177;28;74052;-36
2022/11/24 09:39:16;;;;;;;;;6.50;4.00;;;;;11.55;62.95;100697.34;5021168;28;45739;-36
2022/11/24 09:42:08;;;;;;;;;6.00;5.00;;;;;11.60;62.69;100697.19;5029525;28;45378;-36
2022/11/24 09:44:55;;;;;;;;;8.00;2.75;;;;;11.63;62.77;100694.47;5037633;28;45226;-36
2022/11/24 09:47:31;;;;;;;;;5.50;3.25;;;;;11.65;62.25;100703.16;5088226;27;46317;-36
2022/11/24 09:50:11;;;;;;;;;8.00;4.50;;;;;11.66;62.21;100688.28;5087680;27;45231;-36
2022/11/24 09:52:47;;;;;;;;;5.00;3.50;;;;;11.69;62.32;100701.28;5038205;28;45954;-36
2022/11/24 09:55:34;;;;;;;;;7.00;6.00;;;;;11.72;62.29;100693.31;5034774;28;45386;-37
2022/11/24 09:58:29;;;;;;;;;9.50;7.00;;;;;11.75;62.16;100693.22;5037308;28;46959;-37
2022/11/24 10:00:55;;;;;;;;;6.25;4.75;;;;;11.81;62.41;100710.50;5032174;28;45467;-37
2022/11/24 10:03:26;;;;;;;;;13.75;7.50;;;;;11.87;62.46;100715.56;5038320;27;45491;-37
2022/11/24 10:05:52;;;;;;;;;10.75;5.25;;;;;11.92;62.07;100721.56;5034472;28;45266;-36
2022/11/24 10:08:31;;;;;;;;;8.75;4.75;;;;;11.94;62.34;100719.72;5041679;28;51255;-36
2022/11/24 10:10:59;;;;;;;;;6.50;5.00;;;;;11.97;62.14;100730.13;5021266;28;45311;-37
2022/11/24 10:14:12;;;;;;;;;7.00;4.00;;;;;12.00;61.91;100718.66;5020646;28;45308;-37
2022/11/24 10:16:37;;;;;;;;;8.50;5.25;;;;;12.04;62.09;100715.91;4994195;28;45616;-36
2022/11/24 10:19:13;;;;;;;;;10.33;5.00;;;;;12.06;62.14;100711.47;4995008;28;47127;-37
2022/11/24 10:21:54;;;;;;;;;9.50;6.25;;;;;12.10;61.90;100699.09;5017814;28;45428;-36
2022/11/24 10:24:25;;;;;;;;;7.75;5.75;;;;;12.15;62.02;100699.78;5048391;28;45211;-36
2022/11/24 10:27:02;;;;;;;;;4.50;0.50;;;;;12.19;62.17;100698.78;5036100;28;45380;-36
2022/11/24 10:29:39;;;;;;;;;12.00;8.00;;;;;12.23;61.85;100692.50;5033919;28;46986;-37
2022/11/24 10:32:13;;;;;;;;;8.00;4.25;;;;;12.27;62.26;100685.38;5033202;28;45254;-36
2022/11/24 10:34:41;;;;;;;;;4.75;3.50;;;;;12.28;61.73;100681.84;5026780;27;45386;-36
2022/11/24 10:37:09;;;;;;;;;8.75;5.75;;;;;12.31;62.05;100692.25;5038903;28;45355;-36
2022/11/24 10:39:45;;;;;;;;;6.25;3.00;;;;;12.34;61.79;100690.38;5028331;28;46590;-36
2022/11/24 10:42:23;;;;;;;;;10.75;5.00;;;;;12.36;61.57;100682.47;5032167;28;45547;-36
2022/11/24 10:44:58;;;;;;;;;3.50;3.50;;;;;12.38;61.72;100682.38;5028043;28;45457;-37
2022/11/24 10:47:23;;;;;;;;;8.25;5.00;;;;;12.39;61.75;100669.19;5021691;28;45512;-36
2022/11/24 10:49:59;;;;;;;;;9.50;2.00;;;;;12.43;61.72;100669.94;5036025;28;72248;-36
2022/11/24 10:52:26;;;;;;;;;6.75;5.00;;;;;12.42;61.55;100665.63;5027862;28;45228;-37
2022/11/24 10:55:03;;;;;;;;;9.25;5.00;;;;;12.45;61.53;100669.00;5034981;28;45281;-36
2022/11/24 10:57:36;;;;;;;;;7.50;4.00;;;;;12.48;61.05;100658.41;5015549;28;45331;-36
2022/11/24 11:00:24;;;;;;;;;10.25;5.75;;;;;12.51;61.30;100665.28;5036218;28;46355;-36
2022/11/24 11:03:15;;;;;;;;;10.75;6.00;;;;;12.55;61.29;100659.00;5021291;27;45383;-37
2022/11/24 11:05:42;;;;;;;;;4.00;4.00;;;;;12.56;61.21;100655.47;5051909;28;45439;-37
2022/11/24 11:08:34;;;;;;;;;9.75;9.25;;;;;12.61;61.01;100655.34;5019706;27;45891;-37
2022/11/24 11:11:25;;;;;;;;;11.50;10.00;;;;;12.64;61.29;100653.44;5022631;28;66671;-36
2022/11/24 11:13:54;;;;;;;;;6.50;3.00;;;;;12.66;61.00;100649.00;5035108;28;45397;-36
2022/11/24 11:16:49;;;;;;;;;9.00;5.00;;;;;12.66;61.38;100643.75;5032421;28;45462;-37
2022/11/24 11:19:37;;;;;;;;;7.00;5.00;;;;;12.69;61.33;100642.75;5021344;28;45452;-36
2022/11/24 11:22:08;;;;;;;;;8.00;5.00;;;;;12.72;60.94;100640.88;5045092;28;45520;-36
2022/11/24 11:24:34;;;;;;;;;9.25;6.00;;;;;12.75;60.87;100639.91;5045544;28;45458;-36
2022/11/24 11:27:14;;;;;;;;;8.00;4.00;;;;;12.78;60.77;100641.56;5034547;28;68579;-36